WetterOnline ( https://www.wetteronline.de )

Wetter aktuell Zechin

Aktuelles Wetter: Manschnow (16m)

6-stündlich | Neueste Meldungen
Ortszeit Temperatur Wetter
Sa, 29.01. 7:00 2.4° C Sprühregen
Sa, 29.01. 1:00 1.7° C bedeckt
Fr, 28.01. 19:00 1.1° C bedeckt
Fr, 28.01. 13:00 5.9° C bedeckt
Fr, 28.01. 7:00 5.1° C bedeckt
Fr, 28.01. 1:00 5.2° C bewölkt
Do, 27.01. 19:00 5.9° C bewölkt
Do, 27.01. 13:00 3.5° C bedeckt
Ortszeit Temperatur Wetter
Sa, 29.01. 12:00 4.8° C leichter Regen
Sa, 29.01. 11:50 4.8° C leichter Regen
Sa, 29.01. 11:40 4.6° C leichter Regen
Sa, 29.01. 11:30 4.3° C leichter Regen
Sa, 29.01. 11:20 4.3° C leichter Regen
Sa, 29.01. 11:10 4.2° C Regen
Sa, 29.01. 11:00 4.0° C leichter Regen
Sa, 29.01. 10:30 3.8° C Regen
Sa, 29.01. 10:00 3.6° C leichter Regen
Sa, 29.01. 9:30 3.4° C leichter Regen
Sa, 29.01. 9:00 3.1° C leichter Regen
Ortszeit Relative Feuchte Sichtweite
Sa, 29.01. 7:00 91% 16 km
Sa, 29.01. 1:00 84% 27 km
Fr, 28.01. 19:00 72% >70 km
Fr, 28.01. 13:00 68% 40 km
Fr, 28.01. 7:00 72% 29 km
Fr, 28.01. 1:00 74% 30 km
Do, 27.01. 19:00 86% 35 km
Do, 27.01. 13:00 91% 8 km
Ortszeit Relative Feuchte Sichtweite
Sa, 29.01. 12:00 95% 8 km
Sa, 29.01. 11:50 95% -
Sa, 29.01. 11:40 95% -
Sa, 29.01. 11:30 97% 12 km
Sa, 29.01. 11:20 97% -
Sa, 29.01. 11:10 96% -
Sa, 29.01. 11:00 95% 5.0 km
Sa, 29.01. 10:30 95% 8 km
Sa, 29.01. 10:00 93% 10 km
Sa, 29.01. 9:30 93% 11 km
Sa, 29.01. 9:00 92% 8 km
Ortszeit Niederschlagsmenge Niederschlagsart
Sa, 29.01. 7:00 0.1 l/m2 in 12 Std. Regen
Sa, 29.01. 1:00 0.0 l/m2 in 6 Std. -
Fr, 28.01. 19:00 0.0 l/m2 in 12 Std. -
Fr, 28.01. 13:00 0.0 l/m2 in 6 Std. -
Fr, 28.01. 7:00 0.1 l/m2 in 12 Std. Regen
Fr, 28.01. 1:00 0.1 l/m2 in 6 Std. Regen
Do, 27.01. 19:00 0.2 l/m2 in 12 Std. Regen
Do, 27.01. 13:00 0.1 l/m2 in 6 Std. Regen
Ortszeit Niederschlagsmenge Niederschlagsart
Sa, 29.01. 12:00 1.8 l/m2 in 1 Std. Regen
Sa, 29.01. 11:50 keine Meldung -
Sa, 29.01. 11:40 keine Meldung -
Sa, 29.01. 11:30 1.6 l/m2 in 1 Std. -
Sa, 29.01. 11:20 keine Meldung -
Sa, 29.01. 11:10 keine Meldung -
Sa, 29.01. 11:00 2.4 l/m2 in 1 Std. Regen
Sa, 29.01. 10:30 1.2 l/m2 in 1 Std. -
Sa, 29.01. 10:00 1.2 l/m2 in 1 Std. Regen
Sa, 29.01. 9:30 0.4 l/m2 in 1 Std. -
Sa, 29.01. 9:00 0.7 l/m2 in 1 Std. Regen
Ortszeit Stärke Spitze Richtung
km/h Bft. km/h Grad Sektor
Sa, 29.01. 7:00 22 4 36 220° SW
Sa, 29.01. 1:00 13 3 19 240° SW
Fr, 28.01. 19:00 14 3 50 310° NW
Fr, 28.01. 13:00 28 4 50 320° NW
Fr, 28.01. 7:00 30 5 65 290° W
Fr, 28.01. 1:00 40 6 61 270° W
Do, 27.01. 19:00 28 4 52 250° W
Do, 27.01. 13:00 29 5 47 250° W
Ortszeit Stärke Spitze Richtung
km/h Bft. km/h Grad Sektor
Sa, 29.01. 12:00 25 4 36 230° SW
Sa, 29.01. 11:50 25 4 - 230° SW
Sa, 29.01. 11:40 24 4 - 230° SW
Sa, 29.01. 11:30 22 4 35 220° SW
Sa, 29.01. 11:20 22 4 - 220° SW
Sa, 29.01. 11:10 22 4 - 230° SW
Sa, 29.01. 11:00 25 4 36 220° SW
Sa, 29.01. 10:30 25 4 36 220° SW
Sa, 29.01. 10:00 24 4 39 230° SW
Sa, 29.01. 9:30 22 4 33 220° SW
Sa, 29.01. 9:00 22 4 36 220° SW
Ortszeit Untergrenze Bedeckung Gattung
total tief tief mittel hoch
Sa, 29.01. 7:00 420 m 7/8 7/8 - - -
Sa, 29.01. 1:00 3000 m 8/8 8/8 - - -
Fr, 28.01. 19:00 5400 m 8/8 8/8 - - -
Fr, 28.01. 13:00 900 m 8/8 8/8 - - -
Fr, 28.01. 7:00 1020 m 8/8 8/8 - - -
Fr, 28.01. 1:00 840 m 7/8 7/8 - - -
Do, 27.01. 19:00 600 m 7/8 7/8 - - -
Do, 27.01. 13:00 270 m 8/8 8/8 - - -
Ortszeit Bedeckungsgrad in Achtel und Wolkenuntergrenze
Sa, 29.01. 12:00 8(240m)
Sa, 29.01. 11:50 8(240m)
Sa, 29.01. 11:40 7
Sa, 29.01. 11:30 6(240m) 7(420m) 8(540m)
Sa, 29.01. 11:20 6(240m) 7(420m) 8(540m)
Sa, 29.01. 11:10 8
Sa, 29.01. 11:00 7(270m) 7(960m)
Sa, 29.01. 10:30 4(300m) 7(690m) 7(1020m)
Sa, 29.01. 10:00 4(300m) 7(540m) 8(960m)
Sa, 29.01. 9:30 4(300m) 7(600m) 8(960m)
Sa, 29.01. 9:00 5(330m) 7(750m) 8(990m)
Ortszeit Luftdruck NN (hPa) Tendenz (hPa in 3 Std.)
Sa, 29.01. 7:00 1020 - 4,0
Sa, 29.01. 1:00 1027 - 1,1
Fr, 28.01. 19:00 1028 + 2,9
Fr, 28.01. 13:00 1023 + 3,0
Fr, 28.01. 7:00 1015 + 2,7
Fr, 28.01. 1:00 1010 - 0,2
Do, 27.01. 19:00 1011 - 1,1
Do, 27.01. 13:00 1014 - 1,6
Ortszeit Luftdruck NN (hPa) Tendenz (hPa in 3 Std.)
Sa, 29.01. 12:00 1015 - 3,6
Sa, 29.01. 11:50 1015 keine Meldung
Sa, 29.01. 11:40 1015 keine Meldung
Sa, 29.01. 11:30 1015 - 3,7
Sa, 29.01. 11:20 1015 keine Meldung
Sa, 29.01. 11:10 1015 keine Meldung
Sa, 29.01. 11:00 1016 - 3,7
Sa, 29.01. 10:30 1017 - 3,4
Sa, 29.01. 10:00 1017 - 3,2
Sa, 29.01. 9:30 1018 - 3,5
Sa, 29.01. 9:00 1018 - 3,6
Ortszeit Schneehöhe (cm)
Sa, 29.01. 7:00 0
Sa, 29.01. 1:00 0
Fr, 28.01. 19:00 0
Fr, 28.01. 13:00 0
Fr, 28.01. 7:00 0
Fr, 28.01. 1:00 0
Do, 27.01. 19:00 0
Do, 27.01. 13:00 0
Ortszeit Schneehöhe (cm)
Sa, 29.01. 12:00 0
Sa, 29.01. 11:50 0
Sa, 29.01. 11:40 0
Sa, 29.01. 11:30 0
Sa, 29.01. 11:20 0
Sa, 29.01. 11:10 0
Sa, 29.01. 11:00 0
Sa, 29.01. 10:30 0
Sa, 29.01. 10:00 0
Sa, 29.01. 9:30 0
Sa, 29.01. 9:00 0
Link zu dieser Seite / Seite empfehlen

Das Wetter in ...